createdAt,value
2017-04-13T00:00:02.972Z,102.32
2017-04-13T00:15:02.915Z,101.56
2017-04-13T00:30:02.099Z,101.75
2017-04-13T00:45:02.251Z,102.49
2017-04-13T01:00:02.272Z,102.3
2017-04-13T01:15:02.297Z,102.44
2017-04-13T01:30:03.092Z,102.59
2017-04-13T01:45:03.155Z,102.53
2017-04-13T02:00:02.972Z,102.84
2017-04-13T02:15:03.000Z,103.01
2017-04-13T02:30:02.928Z,103.06
2017-04-13T02:45:02.983Z,102.68
2017-04-13T03:00:03.109Z,102.82
2017-04-13T03:15:02.697Z,103.19
2017-04-13T03:30:02.487Z,103.33
2017-04-13T03:45:03.228Z,103.23
2017-04-13T04:00:02.089Z,103.23
2017-04-13T04:15:02.725Z,103.32
2017-04-13T04:30:03.184Z,103.46
2017-04-13T04:45:02.595Z,103.08
2017-04-13T05:00:02.968Z,102.63
2017-04-13T05:15:03.000Z,102.28
2017-04-13T05:30:02.855Z,101.94
2017-04-13T05:45:02.858Z,101.24
2017-04-13T06:00:02.086Z,100.97
2017-04-13T06:15:02.380Z,99.85
2017-04-13T06:30:02.672Z,99.21
2017-04-13T06:45:02.688Z,98.79
2017-04-13T07:00:02.600Z,98.4
2017-04-13T07:15:02.679Z,98.06
2017-04-13T07:30:02.209Z,97.08
2017-04-13T07:45:02.419Z,95.68
2017-04-13T08:00:02.095Z,94.51
2017-04-13T08:15:02.986Z,92.97
2017-04-13T08:30:02.977Z,91.6
2017-04-13T08:45:02.335Z,91.42
2017-04-13T09:00:02.430Z,89.84
2017-04-13T09:15:02.158Z,86.67
2017-04-13T09:30:02.142Z,84.85
2017-04-13T09:45:02.328Z,80.26
2017-04-13T10:00:03.045Z,79.04
2017-04-13T10:15:02.748Z,71.26
2017-04-13T10:30:02.231Z,71.69
2017-04-13T10:45:02.887Z,70.53
2017-04-13T11:00:03.059Z,67.22
2017-04-13T11:15:02.686Z,74.81
2017-04-13T11:30:02.968Z,70.02
2017-04-13T11:45:02.935Z,70.3
2017-04-13T12:00:02.372Z,70.82
2017-04-13T12:15:03.043Z,66.03
2017-04-13T12:30:02.860Z,67.8
2017-04-13T12:45:03.059Z,66.15
2017-04-13T13:00:02.506Z,67.2
2017-04-13T13:15:02.326Z,67.41
2017-04-13T13:30:02.822Z,69.21
2017-04-13T13:45:02.708Z,62.83
2017-04-13T14:00:02.436Z,57.97
2017-04-13T14:15:03.048Z,60.58
2017-04-13T14:30:02.520Z,59.14
2017-04-13T14:45:02.708Z,60.14
2017-04-13T15:00:02.579Z,54.16
2017-04-13T15:15:02.528Z,55.07
2017-04-13T15:30:02.375Z,55.74
2017-04-13T15:45:02.559Z,56.69
2017-04-13T16:00:02.885Z,59.62
2017-04-13T16:15:02.485Z,56.97
2017-04-13T16:30:02.709Z,57.66
2017-04-13T16:45:02.606Z,58.78
2017-04-13T17:00:02.360Z,58.66
2017-04-13T17:15:03.260Z,59.74
2017-04-13T17:30:02.890Z,60.3
2017-04-13T17:45:02.977Z,60.62
2017-04-13T18:00:02.521Z,62.17
2017-04-13T18:15:02.621Z,63.15
2017-04-13T18:30:02.881Z,64
2017-04-13T18:45:02.782Z,64.53
2017-04-13T19:00:02.912Z,67.25
2017-04-13T19:15:02.974Z,70.65
2017-04-13T19:30:03.234Z,71.43
2017-04-13T19:45:02.917Z,71.88
2017-04-13T20:00:02.854Z,72.43
2017-04-13T20:15:02.707Z,73.04
2017-04-13T20:30:02.952Z,73.54
2017-04-13T20:45:02.875Z,74.03
2017-04-13T21:00:03.028Z,73.85
2017-04-13T21:15:03.179Z,73.98
2017-04-13T21:30:02.200Z,74.56
2017-04-13T21:45:02.144Z,75.87
2017-04-13T22:00:02.360Z,76.78
2017-04-13T22:15:02.768Z,77.63
2017-04-13T22:30:02.263Z,78.75
2017-04-13T22:45:02.303Z,80.49
2017-04-13T23:00:02.349Z,80.89
2017-04-13T23:15:02.638Z,82.47
2017-04-13T23:30:02.619Z,84.79
2017-04-13T23:45:03.137Z,85.18
